Decoded Metar for UGTB (TBILISI/NOVO-AL in GEORGIA) (IATA:N/A) | Meteo·Mobile Aviation Weather
aviador You're here:

UGTB Decoded Metar

TBILISI/NOVO-AL in GEORGIA
Report Time2018-09-22 14:00:00
UTC Time2018-09-22 14:35:10
Flight Rules vfr VFR
Wind180° at 04 kt
W.Decomp.*RWY 13: 2.8 kt HW 2.9 kt RCW
W.Rank180° ranks 14
Current wind is below 180° avg. (4.9)
Visibility9999 m
Phenomena:N/A
Clouds:Scattered CB 050 Hf
Expected CloudBase > 2,800 ft AGL from Temp-Dew spread
CeilingNone
Temp22°C (ISA +10)
Dew Point15°C (65% RH)
QNH1020 hPa
Density Alt2,812 ft
Elevation1,624 ft
Report Wrong Elevation
Raw Report
METAR UGTB 221400Z 18004KT 9999 SCT050CB 22/15 Q1020 NOSIG=

Extra information for UGTB:More info

Metar Taf Metar & Taf Last 4 Metars F.Rules Stats Wind Profile Meteogram Temp Stats Airport Information Weather charts Add Link Nearby VenuesMetar ALERT Operation Metar Decoded Social comments